createdAt,value
2023-05-02T00:00:47.412Z,68.84
2023-05-02T00:01:47.580Z,69.07
2023-05-02T00:02:47.513Z,68.98
2023-05-02T00:03:47.642Z,69.24
2023-05-02T00:04:47.551Z,69.10
2023-05-02T00:05:47.564Z,69.14
2023-05-02T00:06:47.665Z,69.40
2023-05-02T00:07:47.679Z,69.21
2023-05-02T00:08:47.758Z,69.43
2023-05-02T00:09:47.793Z,69.47
2023-05-02T00:10:47.864Z,69.09
2023-05-02T00:11:47.842Z,69.56
2023-05-02T00:12:47.867Z,69.66
2023-05-02T00:13:47.881Z,69.81
2023-05-02T00:14:47.938Z,69.23
2023-05-02T00:15:47.894Z,69.72
2023-05-02T00:16:47.909Z,69.83
2023-05-02T00:17:47.958Z,69.00
2023-05-02T00:18:48.017Z,69.13
2023-05-02T00:19:48.012Z,69.37
2023-05-02T00:20:47.976Z,69.56
2023-05-02T00:21:47.968Z,70.17
2023-05-02T00:22:47.974Z,70.32
2023-05-02T00:23:48.081Z,70.11
2023-05-02T00:24:48.052Z,69.76
2023-05-02T00:25:48.086Z,69.74
2023-05-02T00:26:48.059Z,69.49
2023-05-02T00:27:48.073Z,69.94
2023-05-02T00:28:48.109Z,69.85
2023-05-02T00:29:48.106Z,69.88
2023-05-02T00:30:48.158Z,69.84
2023-05-02T00:31:48.100Z,69.54
2023-05-02T00:32:48.176Z,70.52
2023-05-02T00:33:48.144Z,70.53
2023-05-02T00:34:48.236Z,70.02
2023-05-02T00:35:48.221Z,70.04
2023-05-02T00:36:48.253Z,72.19
2023-05-02T00:37:48.303Z,72.69
2023-05-02T00:38:48.304Z,73.35
2023-05-02T00:39:48.361Z,74.65
2023-05-02T00:40:48.404Z,74.02
2023-05-02T00:41:49.024Z,74.02
2023-05-02T00:42:48.517Z,74.72
2023-05-02T00:43:48.518Z,75.70
2023-05-02T00:44:48.603Z,76.14
2023-05-02T00:45:48.603Z,74.90
2023-05-02T00:46:48.757Z,75.31
2023-05-02T00:47:48.692Z,75.05
2023-05-02T00:48:48.703Z,74.94
2023-05-02T00:49:48.715Z,74.08
2023-05-02T00:50:48.728Z,74.33
2023-05-02T00:51:48.740Z,73.68
2023-05-02T00:52:48.801Z,73.23
2023-05-02T00:53:48.801Z,72.24
2023-05-02T00:54:48.835Z,71.82
2023-05-02T00:55:48.806Z,72.14
2023-05-02T00:56:48.870Z,72.07
2023-05-02T00:57:48.889Z,71.11
2023-05-02T00:58:48.902Z,71.85
2023-05-02T00:59:48.933Z,71.77
2023-05-02T01:00:48.916Z,71.45
2023-05-02T01:01:48.936Z,70.77
2023-05-02T01:02:48.990Z,70.38
2023-05-02T01:03:49.146Z,70.50
2023-05-02T01:04:49.028Z,71.31
2023-05-02T01:05:49.006Z,70.47
2023-05-02T01:06:49.133Z,70.63
2023-05-02T01:07:49.150Z,71.02
2023-05-02T01:08:49.196Z,70.94
2023-05-02T01:09:49.203Z,71.39
2023-05-02T01:10:49.278Z,71.23
2023-05-02T01:11:49.307Z,71.31
2023-05-02T01:12:49.317Z,71.24
2023-05-02T01:13:49.396Z,71.55
2023-05-02T01:14:49.442Z,72.34
2023-05-02T01:15:49.472Z,72.20
2023-05-02T01:16:49.501Z,71.51
2023-05-02T01:17:49.738Z,71.80
2023-05-02T01:18:49.653Z,71.62
2023-05-02T01:19:49.627Z,71.60
2023-05-02T01:20:49.726Z,71.50
2023-05-02T01:21:49.747Z,71.82
2023-05-02T01:22:49.863Z,71.06
2023-05-02T01:23:49.786Z,70.94
2023-05-02T01:24:49.810Z,70.96
2023-05-02T01:25:49.820Z,70.77
2023-05-02T01:26:49.910Z,71.30
2023-05-02T01:27:49.920Z,71.25
2023-05-02T01:28:49.929Z,70.28
2023-05-02T01:29:50.030Z,69.80
2023-05-02T01:30:49.965Z,71.54
2023-05-02T01:31:49.997Z,71.62
2023-05-02T01:32:50.185Z,71.26
2023-05-02T01:33:50.098Z,71.91
2023-05-02T01:34:50.165Z,71.27
2023-05-02T01:35:50.104Z,70.76
2023-05-02T01:36:50.158Z,71.13
2023-05-02T01:37:50.158Z,70.74
2023-05-02T01:38:50.205Z,70.65
2023-05-02T01:39:50.290Z,70.74
2023-05-02T01:40:50.307Z,70.84
2023-05-02T01:41:50.307Z,70.44
2023-05-02T01:42:50.392Z,70.29
2023-05-02T01:43:50.437Z,71.41
2023-05-02T01:44:50.439Z,71.15
2023-05-02T01:45:50.458Z,71.24
2023-05-02T01:46:50.516Z,70.82
2023-05-02T01:47:50.559Z,69.95
2023-05-02T01:48:50.499Z,70.00
2023-05-02T01:49:50.550Z,70.21
2023-05-02T01:50:50.569Z,70.79
2023-05-02T01:51:50.594Z,70.65
2023-05-02T01:52:50.588Z,70.60
2023-05-02T01:53:50.616Z,70.31
2023-05-02T01:54:50.710Z,69.96
2023-05-02T01:55:50.705Z,70.30
2023-05-02T01:56:50.740Z,70.16
2023-05-02T01:57:50.837Z,70.16
2023-05-02T01:58:50.802Z,69.91
2023-05-02T01:59:50.921Z,70.17
2023-05-02T02:00:50.994Z,70.00
2023-05-02T02:01:50.968Z,69.92
2023-05-02T02:02:51.047Z,70.15
2023-05-02T02:03:51.126Z,70.04
2023-05-02T02:04:51.292Z,70.01
2023-05-02T02:05:51.215Z,69.88
2023-05-02T02:06:51.307Z,69.62
2023-05-02T02:07:51.329Z,69.63
2023-05-02T02:08:51.319Z,69.67
2023-05-02T02:09:51.333Z,69.92
2023-05-02T02:10:51.393Z,69.60
2023-05-02T02:11:51.399Z,69.60
2023-05-02T02:12:51.456Z,69.64
2023-05-02T02:13:51.504Z,69.48
2023-05-02T02:14:51.536Z,69.06
2023-05-02T02:15:51.531Z,69.05
2023-05-02T02:16:51.672Z,69.15
2023-05-02T02:17:51.629Z,68.91
2023-05-02T02:18:51.601Z,69.51
2023-05-02T02:19:51.613Z,69.64
2023-05-02T02:20:51.632Z,69.38
2023-05-02T02:21:51.621Z,69.53
2023-05-02T02:22:51.621Z,69.99
2023-05-02T02:23:51.666Z,70.12
2023-05-02T02:24:54.223Z,69.92
2023-05-02T02:25:51.683Z,69.50
2023-05-02T02:26:51.646Z,69.55
2023-05-02T02:27:51.653Z,69.46
2023-05-02T02:28:51.665Z,69.34
2023-05-02T02:29:51.662Z,69.23
2023-05-02T02:30:51.704Z,69.96
2023-05-02T02:31:51.617Z,69.97
2023-05-02T02:32:51.665Z,70.03
2023-05-02T02:33:51.628Z,69.84
2023-05-02T02:34:51.638Z,70.31
2023-05-02T02:35:51.608Z,70.19
2023-05-02T02:36:51.607Z,70.31
2023-05-02T02:37:51.625Z,70.03
2023-05-02T02:38:51.609Z,70.10
2023-05-02T02:39:51.566Z,70.51
2023-05-02T02:40:51.575Z,70.92
2023-05-02T02:41:51.544Z,70.16
2023-05-02T02:42:51.556Z,69.74
2023-05-02T02:43:51.572Z,69.54
2023-05-02T02:44:51.582Z,69.73
2023-05-02T02:45:51.621Z,70.16
2023-05-02T02:46:51.539Z,69.90
2023-05-02T02:47:51.553Z,70.56
2023-05-02T02:48:51.556Z,70.42
2023-05-02T02:49:51.530Z,70.40
2023-05-02T02:50:51.514Z,70.41
2023-05-02T02:51:51.502Z,70.98
2023-05-02T02:52:51.518Z,71.22
2023-05-02T02:53:51.523Z,71.72
2023-05-02T02:54:51.463Z,72.12
2023-05-02T02:55:51.464Z,72.04
2023-05-02T02:56:51.478Z,71.92
2023-05-02T02:57:51.486Z,72.28
2023-05-02T02:58:51.446Z,72.66
2023-05-02T02:59:51.472Z,72.96
2023-05-02T03:00:51.454Z,72.96
2023-05-02T03:01:51.462Z,72.87
2023-05-02T03:02:51.463Z,73.25
2023-05-02T03:03:51.514Z,73.20
2023-05-02T03:04:51.400Z,73.16
2023-05-02T03:05:51.405Z,73.06
2023-05-02T03:06:51.439Z,72.81
2023-05-02T03:07:51.444Z,72.32
2023-05-02T03:08:51.367Z,72.77
2023-05-02T03:09:51.362Z,72.86
2023-05-02T03:10:51.353Z,72.18
2023-05-02T03:11:51.330Z,72.58
2023-05-02T03:12:51.383Z,72.54
2023-05-02T03:13:51.353Z,72.63
2023-05-02T03:14:51.364Z,73.84
2023-05-02T03:15:51.396Z,73.77
2023-05-02T03:16:51.312Z,74.74
2023-05-02T03:17:51.463Z,75.10
2023-05-02T03:18:51.299Z,74.25
2023-05-02T03:19:51.285Z,74.37
2023-05-02T03:20:51.302Z,74.66
2023-05-02T03:21:51.284Z,74.15
2023-05-02T03:22:51.284Z,72.90
2023-05-02T03:23:51.275Z,71.94
2023-05-02T03:24:51.308Z,71.67
2023-05-02T03:25:51.316Z,71.48
2023-05-02T03:26:52.089Z,71.33
2023-05-02T03:27:51.333Z,71.23
2023-05-02T03:28:51.251Z,72.59
2023-05-02T03:29:51.248Z,73.18
2023-05-02T03:30:51.269Z,73.38
2023-05-02T03:31:51.313Z,75.63
2023-05-02T03:32:51.253Z,75.18
2023-05-02T03:33:51.213Z,76.39
2023-05-02T03:34:51.279Z,76.27
2023-05-02T03:35:51.215Z,75.92
2023-05-02T03:36:51.235Z,75.88
2023-05-02T03:37:51.223Z,76.55
2023-05-02T03:38:51.163Z,77.26
2023-05-02T03:39:51.179Z,75.68
2023-05-02T03:40:51.169Z,75.23
2023-05-02T03:41:51.157Z,74.33
2023-05-02T03:42:51.175Z,74.33
2023-05-02T03:43:51.146Z,75.22
2023-05-02T03:44:51.161Z,74.49
2023-05-02T03:45:51.140Z,73.61
2023-05-02T03:46:51.168Z,73.56
2023-05-02T03:47:51.182Z,73.14
2023-05-02T03:48:51.180Z,74.06
2023-05-02T03:49:51.214Z,74.45
2023-05-02T03:50:51.204Z,74.57
2023-05-02T03:51:51.249Z,73.96
2023-05-02T03:52:51.243Z,74.55
2023-05-02T03:53:51.272Z,74.53
2023-05-02T03:54:51.287Z,74.35
2023-05-02T03:55:51.297Z,74.21
2023-05-02T03:56:51.304Z,74.25
2023-05-02T03:57:51.315Z,73.83
2023-05-02T03:58:51.344Z,73.73
2023-05-02T03:59:51.353Z,73.70
2023-05-02T04:00:51.401Z,73.68
2023-05-02T04:01:51.420Z,73.05
2023-05-02T04:02:51.512Z,72.60
2023-05-02T04:03:51.408Z,72.37
2023-05-02T04:04:51.418Z,72.39
2023-05-02T04:05:51.502Z,71.87
2023-05-02T04:06:51.638Z,71.98
2023-05-02T04:07:51.510Z,72.00
2023-05-02T04:08:51.533Z,72.19
2023-05-02T04:09:51.533Z,72.16
2023-05-02T04:10:51.509Z,71.32
2023-05-02T04:11:51.526Z,71.37
2023-05-02T04:12:51.591Z,71.36
2023-05-02T04:13:53.316Z,71.02
2023-05-02T04:14:51.652Z,71.14
2023-05-02T04:15:51.625Z,71.18
2023-05-02T04:16:51.705Z,70.79
2023-05-02T04:17:51.736Z,70.80
2023-05-02T04:18:51.676Z,70.94
2023-05-02T04:19:51.720Z,71.01
2023-05-02T04:20:51.724Z,70.89
2023-05-02T04:21:51.747Z,70.69
2023-05-02T04:22:51.760Z,70.62
2023-05-02T04:23:51.825Z,70.63
2023-05-02T04:24:51.839Z,70.45
2023-05-02T04:25:51.842Z,70.32
2023-05-02T04:26:51.810Z,70.06
2023-05-02T04:27:51.861Z,70.22
2023-05-02T04:28:51.841Z,70.29
2023-05-02T04:29:51.869Z,70.62
2023-05-02T04:30:51.939Z,70.12
2023-05-02T04:31:51.933Z,70.42
2023-05-02T04:32:51.930Z,69.86
2023-05-02T04:33:51.989Z,70.18
2023-05-02T04:34:52.008Z,70.33
2023-05-02T04:35:52.015Z,70.18
2023-05-02T04:36:52.011Z,70.11
2023-05-02T04:37:52.060Z,70.09
2023-05-02T04:38:52.064Z,70.46
2023-05-02T04:39:52.060Z,70.06
2023-05-02T04:40:52.057Z,70.25
2023-05-02T04:41:52.151Z,70.37
2023-05-02T04:42:52.087Z,70.44
2023-05-02T04:43:52.641Z,70.27
2023-05-02T04:44:52.107Z,70.00
2023-05-02T04:45:52.241Z,69.91
2023-05-02T04:46:52.217Z,69.88
2023-05-02T04:47:52.245Z,69.95
2023-05-02T04:48:52.265Z,69.98
2023-05-02T04:49:52.300Z,69.66
2023-05-02T04:50:52.302Z,69.45
2023-05-02T04:51:52.297Z,69.24
2023-05-02T04:52:52.318Z,69.24
2023-05-02T04:53:52.338Z,69.66
2023-05-02T04:54:52.343Z,69.79
2023-05-02T04:55:52.366Z,69.52
2023-05-02T04:56:52.385Z,69.50
2023-05-02T04:57:52.391Z,69.57
2023-05-02T04:58:52.478Z,70.00
2023-05-02T04:59:52.473Z,69.85
2023-05-02T05:00:52.530Z,69.92
2023-05-02T05:01:52.457Z,69.64
2023-05-02T05:02:52.508Z,69.55
2023-05-02T05:03:52.556Z,69.79
2023-05-02T05:04:52.631Z,69.71
2023-05-02T05:05:52.534Z,69.33
2023-05-02T05:06:52.575Z,69.24
2023-05-02T05:07:52.567Z,69.20
2023-05-02T05:08:52.583Z,69.04
2023-05-02T05:09:53.407Z,69.01
2023-05-02T05:10:52.646Z,68.70
2023-05-02T05:11:52.666Z,70.17
2023-05-02T05:12:52.657Z,69.75
2023-05-02T05:13:52.675Z,69.45
2023-05-02T05:14:52.787Z,69.70
2023-05-02T05:15:52.835Z,69.80
2023-05-02T05:16:52.798Z,69.62
2023-05-02T05:17:52.910Z,69.47
2023-05-02T05:18:52.867Z,69.24
2023-05-02T05:19:52.928Z,69.53
2023-05-02T05:20:52.952Z,71.04
2023-05-02T05:21:52.972Z,70.26
2023-05-02T05:22:53.034Z,70.31
2023-05-02T05:23:53.100Z,69.84
2023-05-02T05:24:53.136Z,69.72
2023-05-02T05:25:53.111Z,69.71
2023-05-02T05:26:53.166Z,70.15
2023-05-02T05:27:53.184Z,71.13
2023-05-02T05:28:53.171Z,70.96
2023-05-02T05:29:53.246Z,70.63
2023-05-02T05:30:53.231Z,70.07
2023-05-02T05:31:53.408Z,69.76
2023-05-02T05:32:53.447Z,69.90
2023-05-02T05:33:53.397Z,70.32
2023-05-02T05:34:53.635Z,70.66
2023-05-02T05:35:53.438Z,71.60
2023-05-02T05:36:53.382Z,71.79
2023-05-02T05:37:53.370Z,71.54
2023-05-02T05:38:53.401Z,70.37
2023-05-02T05:39:53.469Z,70.82
2023-05-02T05:40:53.461Z,72.14
2023-05-02T05:41:53.552Z,71.46
2023-05-02T05:42:53.536Z,71.02
2023-05-02T05:43:53.600Z,71.17
2023-05-02T05:44:53.609Z,70.94
2023-05-02T05:45:53.612Z,70.60
2023-05-02T05:46:53.703Z,71.81
2023-05-02T05:47:53.813Z,71.54
2023-05-02T05:48:53.827Z,71.84
2023-05-02T05:49:54.160Z,73.52
2023-05-02T05:50:53.851Z,72.31
2023-05-02T05:51:55.632Z,71.47
2023-05-02T05:52:53.840Z,71.21
2023-05-02T05:53:53.874Z,69.67
2023-05-02T05:54:53.911Z,69.95
2023-05-02T05:55:54.017Z,69.68
2023-05-02T05:56:53.994Z,69.04
2023-05-02T05:57:54.045Z,68.56
2023-05-02T05:58:54.253Z,69.33
2023-05-02T05:59:54.107Z,70.49
2023-05-02T06:00:54.120Z,70.35
2023-05-02T06:01:54.171Z,70.06
2023-05-02T06:02:54.271Z,71.62
2023-05-02T06:03:54.307Z,71.04
2023-05-02T06:04:54.353Z,70.38
2023-05-02T06:05:54.335Z,70.27
2023-05-02T06:06:54.365Z,70.11
2023-05-02T06:07:54.305Z,69.98
2023-05-02T06:08:54.381Z,69.70
2023-05-02T06:09:54.400Z,69.69
2023-05-02T06:10:54.405Z,69.51
2023-05-02T06:11:54.455Z,69.90
2023-05-02T06:12:54.492Z,70.32
2023-05-02T06:13:54.515Z,69.89
2023-05-02T06:14:54.529Z,70.28
2023-05-02T06:15:54.576Z,70.31
2023-05-02T06:16:54.566Z,70.47
2023-05-02T06:17:54.687Z,70.09
2023-05-02T06:18:54.625Z,69.52
2023-05-02T06:19:54.679Z,69.86
2023-05-02T06:20:54.704Z,69.66
2023-05-02T06:21:54.738Z,69.22
2023-05-02T06:22:54.807Z,69.52
2023-05-02T06:23:54.833Z,69.10
2023-05-02T06:24:54.876Z,69.39
2023-05-02T06:25:54.880Z,71.10
2023-05-02T06:26:54.924Z,71.50
2023-05-02T06:27:54.970Z,71.00
2023-05-02T06:28:55.011Z,70.27
2023-05-02T06:29:55.024Z,70.15
2023-05-02T06:30:55.076Z,70.37
2023-05-02T06:31:55.250Z,70.06
2023-05-02T06:32:55.198Z,70.21
2023-05-02T06:33:55.217Z,71.19
2023-05-02T06:34:55.250Z,70.72
2023-05-02T06:35:55.219Z,70.54
2023-05-02T06:36:55.336Z,69.72
2023-05-02T06:37:55.393Z,69.70
2023-05-02T06:38:55.395Z,69.36
2023-05-02T06:39:55.496Z,69.16
2023-05-02T06:40:55.588Z,68.59
2023-05-02T06:41:55.599Z,70.65
2023-05-02T06:42:55.572Z,68.92
2023-05-02T06:43:55.614Z,68.12
2023-05-02T06:44:55.644Z,68.97
2023-05-02T06:45:55.701Z,68.58
2023-05-02T06:46:55.798Z,68.25
2023-05-02T06:47:55.826Z,67.51
2023-05-02T06:48:55.813Z,68.33
2023-05-02T06:49:55.871Z,68.26
2023-05-02T06:50:55.916Z,67.66
2023-05-02T06:51:55.893Z,68.07
2023-05-02T06:52:55.970Z,69.95
2023-05-02T06:53:56.000Z,68.49
2023-05-02T06:54:55.946Z,68.31
2023-05-02T06:55:55.954Z,68.25
2023-05-02T06:56:56.028Z,69.17
2023-05-02T06:57:55.974Z,69.20
2023-05-02T06:58:56.029Z,69.08
2023-05-02T06:59:56.068Z,69.06
2023-05-02T07:00:56.130Z,69.54
2023-05-02T07:01:56.086Z,66.85
2023-05-02T07:02:56.134Z,68.82
2023-05-02T07:03:56.140Z,70.09
2023-05-02T07:04:56.183Z,67.79
2023-05-02T07:05:56.180Z,67.32
2023-05-02T07:06:56.341Z,67.46
2023-05-02T07:07:56.208Z,67.86
2023-05-02T07:08:56.234Z,66.46
2023-05-02T07:09:56.329Z,69.34
2023-05-02T07:10:56.313Z,68.45
2023-05-02T07:11:56.341Z,67.88
2023-05-02T07:12:56.379Z,67.75
2023-05-02T07:13:56.358Z,67.48
2023-05-02T07:14:56.386Z,66.62
2023-05-02T07:15:56.439Z,65.18
2023-05-02T07:16:56.517Z,65.94
2023-05-02T07:17:56.565Z,65.39
2023-05-02T07:18:56.523Z,65.61
2023-05-02T07:19:56.599Z,65.83
2023-05-02T07:20:56.635Z,67.54
2023-05-02T07:21:56.743Z,68.19
2023-05-02T07:22:56.651Z,68.83
2023-05-02T07:23:56.645Z,70.38
2023-05-02T07:24:56.717Z,70.85
2023-05-02T07:25:56.732Z,71.29
2023-05-02T07:26:56.739Z,72.66
2023-05-02T07:27:56.792Z,72.68
2023-05-02T07:28:56.959Z,73.24
2023-05-02T07:29:56.958Z,71.64
2023-05-02T07:30:56.978Z,69.89
2023-05-02T07:31:56.968Z,70.15
2023-05-02T07:32:56.990Z,69.56
2023-05-02T07:33:57.001Z,69.73
2023-05-02T07:34:56.996Z,69.59
2023-05-02T07:35:56.998Z,70.07
2023-05-02T07:36:56.985Z,69.29
2023-05-02T07:37:57.017Z,68.52
2023-05-02T07:38:57.094Z,67.88
2023-05-02T07:39:57.069Z,68.40
2023-05-02T07:40:57.155Z,66.59
2023-05-02T07:41:57.067Z,66.45
2023-05-02T07:42:57.142Z,65.61
2023-05-02T07:43:57.161Z,66.73
2023-05-02T07:44:57.697Z,68.52
2023-05-02T07:45:57.308Z,68.82
2023-05-02T07:46:57.204Z,68.99
2023-05-02T07:47:57.359Z,67.98
2023-05-02T07:48:57.299Z,66.81
2023-05-02T07:49:57.356Z,68.07
2023-05-02T07:50:57.366Z,67.82
2023-05-02T07:51:57.419Z,68.26
2023-05-02T07:52:57.401Z,67.35
2023-05-02T07:53:57.475Z,67.82
2023-05-02T07:54:57.550Z,67.92
2023-05-02T07:55:57.549Z,67.97
2023-05-02T07:56:57.489Z,68.32
2023-05-02T07:57:57.535Z,67.87
2023-05-02T07:58:57.568Z,68.10
2023-05-02T07:59:57.712Z,67.05
2023-05-02T08:00:57.826Z,66.51
2023-05-02T08:01:57.589Z,67.59
2023-05-02T08:02:57.633Z,68.29
2023-05-02T08:03:57.792Z,66.30
2023-05-02T08:04:57.695Z,67.40
2023-05-02T08:05:57.673Z,67.52
2023-05-02T08:06:57.726Z,67.45
2023-05-02T08:07:57.747Z,66.74
2023-05-02T08:08:57.733Z,67.14
2023-05-02T08:09:57.795Z,66.53
2023-05-02T08:10:57.762Z,66.27
2023-05-02T08:11:57.786Z,65.87
2023-05-02T08:12:57.806Z,65.94
2023-05-02T08:13:57.907Z,65.81
2023-05-02T08:14:57.919Z,64.44
2023-05-02T08:15:58.072Z,64.59
2023-05-02T08:16:57.985Z,64.71
2023-05-02T08:17:58.050Z,65.01
2023-05-02T08:18:58.038Z,64.70
2023-05-02T08:19:58.341Z,64.43
2023-05-02T08:20:58.099Z,65.04
2023-05-02T08:21:58.128Z,66.30
2023-05-02T08:23:00.087Z,65.33
2023-05-02T08:23:58.152Z,64.57
2023-05-02T08:24:58.227Z,64.85
2023-05-02T08:25:58.220Z,63.77
2023-05-02T08:26:58.257Z,64.13
2023-05-02T08:27:58.278Z,65.44
2023-05-02T08:28:58.314Z,65.11
2023-05-02T08:30:00.571Z,63.22
2023-05-02T08:30:58.275Z,61.52
2023-05-02T08:31:58.436Z,63.09
2023-05-02T08:32:58.386Z,63.34
2023-05-02T08:33:58.296Z,62.87
2023-05-02T08:34:58.285Z,62.15
2023-05-02T08:35:58.730Z,61.05
2023-05-02T08:36:58.595Z,61.62
2023-05-02T08:37:58.261Z,61.59
2023-05-02T08:38:58.255Z,61.90
2023-05-02T08:39:58.641Z,61.55
2023-05-02T08:40:58.678Z,59.31
2023-05-02T08:41:58.245Z,60.44
2023-05-02T08:42:58.294Z,61.09
2023-05-02T08:43:58.227Z,60.43
2023-05-02T08:44:58.242Z,60.33
2023-05-02T08:45:58.804Z,60.08
2023-05-02T08:46:58.239Z,59.72
2023-05-02T08:47:58.208Z,60.08
2023-05-02T08:48:58.185Z,60.12
2023-05-02T08:49:58.552Z,59.84
2023-05-02T08:50:58.160Z,61.09
2023-05-02T08:51:58.187Z,61.07
2023-05-02T08:52:58.147Z,61.30
2023-05-02T08:53:58.148Z,60.99
2023-05-02T08:54:58.395Z,61.28
2023-05-02T08:55:58.191Z,60.70
2023-05-02T08:56:58.139Z,60.03
2023-05-02T08:57:58.116Z,60.26
2023-05-02T08:58:58.157Z,58.62
2023-05-02T08:59:59.095Z,59.29
2023-05-02T09:00:58.167Z,59.90
2023-05-02T09:01:58.083Z,59.70
2023-05-02T09:02:58.133Z,58.74
2023-05-02T09:03:58.069Z,58.73
2023-05-02T09:04:58.370Z,59.69
2023-05-02T09:05:58.099Z,59.02
2023-05-02T09:06:58.028Z,58.54
2023-05-02T09:07:58.027Z,59.08
2023-05-02T09:08:58.063Z,59.11
2023-05-02T09:09:58.024Z,60.19
2023-05-02T09:10:58.030Z,59.61
2023-05-02T09:11:58.061Z,59.18
2023-05-02T09:12:58.008Z,59.05
2023-05-02T09:13:58.186Z,59.69
2023-05-02T09:14:58.226Z,58.22
2023-05-02T09:15:58.095Z,58.35
2023-05-02T09:16:58.346Z,58.81
2023-05-02T09:17:58.099Z,59.00
2023-05-02T09:18:57.943Z,58.30
2023-05-02T09:19:57.975Z,59.55
2023-05-02T09:20:57.981Z,58.54
2023-05-02T09:21:58.028Z,59.59
2023-05-02T09:22:57.974Z,62.27
2023-05-02T09:23:57.964Z,59.57
2023-05-02T09:24:58.150Z,58.41
2023-05-02T09:25:57.961Z,58.86
2023-05-02T09:26:57.944Z,59.87
2023-05-02T09:27:58.003Z,59.66
2023-05-02T09:28:57.896Z,57.39
2023-05-02T09:29:57.968Z,58.02
2023-05-02T09:30:57.996Z,58.30
2023-05-02T09:31:58.028Z,58.38
2023-05-02T09:32:57.981Z,56.20
2023-05-02T09:33:57.882Z,57.92
2023-05-02T09:34:58.053Z,57.01
2023-05-02T09:35:57.889Z,57.00
2023-05-02T09:36:57.892Z,55.99
2023-05-02T09:37:57.964Z,58.07
2023-05-02T09:38:57.917Z,56.88
2023-05-02T09:39:57.846Z,56.05
2023-05-02T09:40:58.208Z,54.91
2023-05-02T09:41:57.830Z,55.39
2023-05-02T09:42:57.806Z,56.93
2023-05-02T09:43:57.845Z,55.15
2023-05-02T09:44:57.890Z,54.08
2023-05-02T09:45:58.268Z,54.32
2023-05-02T09:46:57.755Z,53.25
2023-05-02T09:47:57.783Z,56.35
2023-05-02T09:48:57.757Z,57.52
2023-05-02T09:49:57.748Z,55.63
2023-05-02T09:50:57.788Z,54.21
2023-05-02T09:51:57.730Z,53.88
2023-05-02T09:52:57.746Z,52.90
2023-05-02T09:53:57.821Z,52.48
2023-05-02T09:54:58.155Z,51.27
2023-05-02T09:55:57.818Z,52.85
2023-05-02T09:56:57.805Z,53.45
2023-05-02T09:57:57.871Z,51.44
2023-05-02T09:58:57.850Z,51.65
2023-05-02T09:59:57.965Z,52.39
2023-05-02T10:00:57.913Z,55.51
2023-05-02T10:01:58.073Z,51.48
2023-05-02T10:02:58.057Z,50.92
2023-05-02T10:03:58.090Z,51.21
2023-05-02T10:04:58.347Z,51.12
2023-05-02T10:05:58.194Z,53.13
2023-05-02T10:06:58.142Z,53.84
2023-05-02T10:07:58.199Z,54.68
2023-05-02T10:08:58.271Z,55.31
2023-05-02T10:09:58.328Z,52.92
2023-05-02T10:10:58.348Z,53.93
2023-05-02T10:11:58.382Z,51.89
2023-05-02T10:12:58.379Z,53.32
2023-05-02T10:13:58.401Z,54.54
2023-05-02T10:14:58.578Z,52.92
2023-05-02T10:15:58.495Z,52.97
2023-05-02T10:16:58.522Z,50.88
2023-05-02T10:17:58.625Z,53.12
2023-05-02T10:18:58.596Z,53.52
2023-05-02T10:19:58.605Z,52.60
2023-05-02T10:20:58.652Z,50.96
2023-05-02T10:21:58.623Z,53.30
2023-05-02T10:22:58.624Z,54.06
2023-05-02T10:23:58.636Z,53.04
2023-05-02T10:24:58.856Z,52.76
2023-05-02T10:26:00.177Z,51.27
2023-05-02T10:26:58.793Z,48.91
2023-05-02T10:27:58.835Z,53.37
2023-05-02T10:28:58.857Z,52.07
2023-05-02T10:29:58.842Z,48.88
2023-05-02T10:30:59.245Z,50.65
2023-05-02T10:31:58.995Z,47.67
2023-05-02T10:32:59.054Z,49.46
2023-05-02T10:33:58.997Z,48.11
2023-05-02T10:34:59.290Z,47.33
2023-05-02T10:35:59.215Z,47.77
2023-05-02T10:36:59.105Z,45.92
2023-05-02T10:37:59.110Z,43.74
2023-05-02T10:38:59.065Z,43.70
2023-05-02T10:39:59.173Z,43.73
2023-05-02T10:40:59.704Z,42.42
2023-05-02T10:41:59.230Z,40.74
2023-05-02T10:42:59.272Z,38.85
2023-05-02T10:43:59.326Z,39.57
2023-05-02T10:44:59.512Z,38.60
2023-05-02T10:45:59.709Z,39.30
2023-05-02T10:46:59.526Z,39.92
2023-05-02T10:47:59.538Z,39.45
2023-05-02T10:48:59.519Z,38.68
2023-05-02T10:49:59.532Z,45.83
2023-05-02T10:50:59.584Z,45.25
2023-05-02T10:51:59.566Z,44.53
2023-05-02T10:52:59.651Z,42.88
2023-05-02T10:53:59.650Z,43.62
2023-05-02T10:54:59.879Z,43.36
2023-05-02T10:55:59.761Z,45.86
2023-05-02T10:56:59.809Z,44.55
2023-05-02T10:57:59.844Z,48.17
2023-05-02T10:58:59.823Z,45.74
2023-05-02T10:59:59.860Z,45.19
2023-05-02T11:01:00.099Z,45.41
2023-05-02T11:02:00.687Z,45.63
2023-05-02T11:03:00.194Z,44.60
2023-05-02T11:04:00.026Z,42.96
2023-05-02T11:05:00.396Z,44.30
2023-05-02T11:06:00.221Z,41.57
2023-05-02T11:07:00.148Z,42.17
2023-05-02T11:08:00.180Z,41.26
2023-05-02T11:09:00.192Z,42.51
2023-05-02T11:10:00.215Z,42.22
2023-05-02T11:11:00.279Z,41.26
2023-05-02T11:12:00.289Z,41.04
2023-05-02T11:13:00.332Z,40.22
2023-05-02T11:14:00.349Z,41.76
2023-05-02T11:15:00.684Z,40.53
2023-05-02T11:16:00.367Z,40.48
2023-05-02T11:17:00.596Z,41.10
2023-05-02T11:18:00.520Z,40.87
2023-05-02T11:19:00.428Z,41.29
2023-05-02T11:20:00.476Z,39.37
2023-05-02T11:21:00.759Z,41.47
2023-05-02T11:22:00.484Z,39.87
2023-05-02T11:23:00.504Z,39.72
2023-05-02T11:24:00.606Z,40.69
2023-05-02T11:25:00.903Z,38.43
2023-05-02T11:26:00.680Z,38.43
2023-05-02T11:27:00.642Z,39.42
2023-05-02T11:28:00.674Z,39.82
2023-05-02T11:29:00.749Z,40.87
2023-05-02T11:30:00.835Z,40.28
2023-05-02T11:31:01.255Z,40.74
2023-05-02T11:32:00.949Z,39.87
2023-05-02T11:33:00.919Z,42.28
2023-05-02T11:34:00.834Z,43.14
2023-05-02T11:35:01.194Z,40.33
2023-05-02T11:36:01.339Z,41.00
2023-05-02T11:37:00.948Z,41.97
2023-05-02T11:38:00.963Z,42.87
2023-05-02T11:39:00.977Z,39.85
2023-05-02T11:40:01.033Z,40.57
2023-05-02T11:41:01.086Z,41.13
2023-05-02T11:42:01.091Z,40.57
2023-05-02T11:43:01.137Z,39.51
2023-05-02T11:44:01.158Z,40.07
2023-05-02T11:45:01.581Z,40.66
2023-05-02T11:46:01.257Z,39.49
2023-05-02T11:47:01.268Z,39.64
2023-05-02T11:48:01.320Z,38.36
2023-05-02T11:49:01.333Z,37.31
2023-05-02T11:50:01.396Z,39.02
2023-05-02T11:51:01.401Z,39.72
2023-05-02T11:52:01.480Z,38.67
2023-05-02T11:53:01.474Z,38.31
2023-05-02T11:54:01.474Z,39.15
2023-05-02T11:55:01.717Z,40.52
2023-05-02T11:56:01.665Z,40.70
2023-05-02T11:57:01.613Z,42.86
2023-05-02T11:58:01.739Z,43.41
2023-05-02T11:59:01.689Z,45.30
2023-05-02T12:00:01.729Z,46.78
2023-05-02T12:01:01.709Z,46.51
2023-05-02T12:02:01.746Z,49.67
2023-05-02T12:03:02.010Z,48.76
2023-05-02T12:04:01.843Z,51.34
2023-05-02T12:05:02.098Z,51.61
2023-05-02T12:06:02.012Z,52.91
2023-05-02T12:07:02.020Z,54.50
2023-05-02T12:08:01.995Z,56.09
2023-05-02T12:09:02.030Z,56.94
2023-05-02T12:10:02.147Z,56.50
2023-05-02T12:11:02.093Z,57.19
2023-05-02T12:12:02.163Z,58.90
2023-05-02T12:13:02.167Z,58.66
2023-05-02T12:14:02.276Z,57.24
2023-05-02T12:15:02.457Z,57.52
2023-05-02T12:16:02.284Z,57.72
2023-05-02T12:17:02.240Z,56.01
2023-05-02T12:18:02.362Z,55.06
2023-05-02T12:19:02.309Z,56.91
2023-05-02T12:20:02.379Z,58.36
2023-05-02T12:21:02.464Z,59.16
2023-05-02T12:22:02.435Z,57.86
2023-05-02T12:23:02.458Z,57.23
2023-05-02T12:24:02.532Z,56.56
2023-05-02T12:25:02.698Z,56.23
2023-05-02T12:26:02.592Z,56.23
2023-05-02T12:27:02.557Z,55.76
2023-05-02T12:28:02.586Z,56.57
2023-05-02T12:29:02.756Z,55.18
2023-05-02T12:30:03.106Z,54.77
2023-05-02T12:31:02.722Z,54.88
2023-05-02T12:32:02.861Z,55.82
2023-05-02T12:33:02.706Z,56.88
2023-05-02T12:34:02.714Z,55.15
2023-05-02T12:35:02.698Z,56.61
2023-05-02T12:36:02.783Z,53.25
2023-05-02T12:37:02.805Z,52.11
2023-05-02T12:38:02.785Z,51.47
2023-05-02T12:39:02.816Z,50.53
2023-05-02T12:40:03.074Z,48.76
2023-05-02T12:41:02.957Z,48.63
2023-05-02T12:42:02.953Z,48.27
2023-05-02T12:43:02.991Z,46.92
2023-05-02T12:44:03.060Z,45.81
2023-05-02T12:45:03.012Z,45.59
2023-05-02T12:46:03.043Z,45.59
2023-05-02T12:47:03.129Z,46.61
2023-05-02T12:48:03.118Z,47.56
2023-05-02T12:49:03.140Z,48.26
2023-05-02T12:50:03.306Z,48.59
2023-05-02T12:51:03.145Z,49.28
2023-05-02T12:52:03.147Z,49.36
2023-05-02T12:53:03.156Z,51.48